Thornton, Iowa
Current Conditions -  °F | °C
As of 9:53 PM on Tuesday 25 Nov 2014 (Local Time) from KMCW Reporting Station
Scattered Clouds Scattered Clouds  
Wind Chill:   Ceiling: Unl
Heat Index: 20°   Visibility: 10mi
Dew Point: 16°   Wind: 10mph
Humidity: 85%   Direction: 140°SE
Pressure: 30.02"   Gusts: NA
Location:  42.94°N, 93.38°W
Report Text: KMCW 260353Z AUTO 14009KT 10SM SCT080 M07/M09 A3002 RMK AO2 SLP181 T10671089
Loading
Personal Weather Stations






























Interactive Weather Map New forecast layout! Learn more

10-Day Weather Forecast

Advertisements
Track Severe Weather on mobile